sensor_id;sensor_type;location;lat;lon;timestamp;temperature;humidity
50162;DHT22;36061;48.116;11.612;2023-09-07T00:01:19;17.20;99.90
50162;DHT22;36061;48.116;11.612;2023-09-07T00:03:47;17.20;99.90
50162;DHT22;36061;48.116;11.612;2023-09-07T00:06:15;17.20;99.90
50162;DHT22;36061;48.116;11.612;2023-09-07T00:08:43;17.20;99.90
50162;DHT22;36061;48.116;11.612;2023-09-07T00:11:10;17.20;99.90
50162;DHT22;36061;48.116;11.612;2023-09-07T00:13:38;17.10;99.90
50162;DHT22;36061;48.116;11.612;2023-09-07T00:16:05;17.10;99.90
50162;DHT22;36061;48.116;11.612;2023-09-07T00:18:33;17.00;99.90
50162;DHT22;36061;48.116;11.612;2023-09-07T00:21:02;17.00;99.90
50162;DHT22;36061;48.116;11.612;2023-09-07T00:23:29;17.00;99.90
50162;DHT22;36061;48.116;11.612;2023-09-07T00:25:56;16.90;99.90
50162;DHT22;36061;48.116;11.612;2023-09-07T00:28:24;16.80;99.90
50162;DHT22;36061;48.116;11.612;2023-09-07T00:30:51;16.80;99.90
50162;DHT22;36061;48.116;11.612;2023-09-07T00:33:18;16.70;99.90
50162;DHT22;36061;48.116;11.612;2023-09-07T00:35:45;16.70;99.90
50162;DHT22;36061;48.116;11.612;2023-09-07T00:38:14;16.70;99.90
50162;DHT22;36061;48.116;11.612;2023-09-07T00:40:43;16.70;99.90
50162;DHT22;36061;48.116;11.612;2023-09-07T00:43:11;16.60;99.90
50162;DHT22;36061;48.116;11.612;2023-09-07T00:45:38;16.60;99.90
50162;DHT22;36061;48.116;11.612;2023-09-07T00:48:06;16.60;99.90
50162;DHT22;36061;48.116;11.612;2023-09-07T00:50:33;16.60;99.90
50162;DHT22;36061;48.116;11.612;2023-09-07T00:53:01;16.60;99.90
50162;DHT22;36061;48.116;11.612;2023-09-07T00:55:30;16.60;99.90
50162;DHT22;36061;48.116;11.612;2023-09-07T00:58:00;16.60;99.90
50162;DHT22;36061;48.116;11.612;2023-09-07T01:00:29;16.60;99.90
50162;DHT22;36061;48.116;11.612;2023-09-07T01:02:56;16.50;99.90
50162;DHT22;36061;48.116;11.612;2023-09-07T01:05:32;16.50;99.90
50162;DHT22;36061;48.116;11.612;2023-09-07T01:08:06;16.50;99.90
50162;DHT22;36061;48.116;11.612;2023-09-07T01:10:36;16.50;99.90
50162;DHT22;36061;48.116;11.612;2023-09-07T01:13:03;16.40;99.90
50162;DHT22;36061;48.116;11.612;2023-09-07T01:15:30;16.40;99.90
50162;DHT22;36061;48.116;11.612;2023-09-07T01:17:58;16.40;99.90
50162;DHT22;36061;48.116;11.612;2023-09-07T01:20:26;16.40;99.90
50162;DHT22;36061;48.116;11.612;2023-09-07T01:22:55;16.40;99.90
50162;DHT22;36061;48.116;11.612;2023-09-07T01:25:23;16.40;99.90
50162;DHT22;36061;48.116;11.612;2023-09-07T01:27:51;16.40;99.90
50162;DHT22;36061;48.116;11.612;2023-09-07T01:30:18;16.40;99.90
50162;DHT22;36061;48.116;11.612;2023-09-07T01:32:45;16.40;99.90
50162;DHT22;36061;48.116;11.612;2023-09-07T01:35:14;16.40;99.90
50162;DHT22;36061;48.116;11.612;2023-09-07T01:37:44;16.40;99.90
50162;DHT22;36061;48.116;11.612;2023-09-07T01:40:12;16.40;99.90
50162;DHT22;36061;48.116;11.612;2023-09-07T01:42:39;16.40;99.90
50162;DHT22;36061;48.116;11.612;2023-09-07T01:45:08;16.30;99.90
50162;DHT22;36061;48.116;11.612;2023-09-07T01:47:35;16.30;99.90
50162;DHT22;36061;48.116;11.612;2023-09-07T01:50:02;16.30;99.90
50162;DHT22;36061;48.116;11.612;2023-09-07T01:52:30;16.20;99.90
50162;DHT22;36061;48.116;11.612;2023-09-07T01:54:57;16.20;99.90
50162;DHT22;36061;48.116;11.612;2023-09-07T01:57:26;16.20;99.90
50162;DHT22;36061;48.116;11.612;2023-09-07T01:59:53;16.10;99.90
50162;DHT22;36061;48.116;11.612;2023-09-07T02:02:20;16.00;99.90
50162;DHT22;36061;48.116;11.612;2023-09-07T02:04:48;16.00;99.90
50162;DHT22;36061;48.116;11.612;2023-09-07T02:07:15;16.00;99.90
50162;DHT22;36061;48.116;11.612;2023-09-07T02:09:42;15.90;99.90
50162;DHT22;36061;48.116;11.612;2023-09-07T02:12:10;15.90;99.90
50162;DHT22;36061;48.116;11.612;2023-09-07T02:14:38;15.90;99.90
50162;DHT22;36061;48.116;11.612;2023-09-07T02:17:06;15.80;99.90
50162;DHT22;36061;48.116;11.612;2023-09-07T02:19:34;15.80;99.90
50162;DHT22;36061;48.116;11.612;2023-09-07T02:22:01;15.70;99.90
50162;DHT22;36061;48.116;11.612;2023-09-07T02:24:28;15.70;99.90
50162;DHT22;36061;48.116;11.612;2023-09-07T02:26:56;15.60;99.90
50162;DHT22;36061;48.116;11.612;2023-09-07T02:29:23;15.60;99.90
50162;DHT22;36061;48.116;11.612;2023-09-07T02:31:51;15.60;99.90
50162;DHT22;36061;48.116;11.612;2023-09-07T02:34:19;15.60;99.90
50162;DHT22;36061;48.116;11.612;2023-09-07T02:36:46;15.60;99.90
50162;DHT22;36061;48.116;11.612;2023-09-07T02:39:14;15.60;99.90
50162;DHT22;36061;48.116;11.612;2023-09-07T02:41:41;15.60;99.90
50162;DHT22;36061;48.116;11.612;2023-09-07T02:44:08;15.50;99.90
50162;DHT22;36061;48.116;11.612;2023-09-07T02:46:35;15.50;99.90
50162;DHT22;36061;48.116;11.612;2023-09-07T02:49:04;15.50;99.90
50162;DHT22;36061;48.116;11.612;2023-09-07T02:51:32;15.50;99.90
50162;DHT22;36061;48.116;11.612;2023-09-07T02:54:01;15.50;99.90
50162;DHT22;36061;48.116;11.612;2023-09-07T02:56:30;15.50;99.90
50162;DHT22;36061;48.116;11.612;2023-09-07T02:58:57;15.40;99.90
50162;DHT22;36061;48.116;11.612;2023-09-07T03:01:25;15.40;99.90
50162;DHT22;36061;48.116;11.612;2023-09-07T03:03:53;15.40;99.90
50162;DHT22;36061;48.116;11.612;2023-09-07T03:06:21;15.40;99.90
50162;DHT22;36061;48.116;11.612;2023-09-07T03:08:51;15.40;99.90
50162;DHT22;36061;48.116;11.612;2023-09-07T03:11:19;15.40;99.90
50162;DHT22;36061;48.116;11.612;2023-09-07T03:13:48;15.40;99.90
50162;DHT22;36061;48.116;11.612;2023-09-07T03:16:15;15.40;99.90
50162;DHT22;36061;48.116;11.612;2023-09-07T03:18:42;15.40;99.90
50162;DHT22;36061;48.116;11.612;2023-09-07T03:21:11;15.30;99.90
50162;DHT22;36061;48.116;11.612;2023-09-07T03:23:39;15.30;99.90
50162;DHT22;36061;48.116;11.612;2023-09-07T03:26:11;15.30;99.90
50162;DHT22;36061;48.116;11.612;2023-09-07T03:28:39;15.20;99.90
50162;DHT22;36061;48.116;11.612;2023-09-07T03:31:06;15.20;99.90
50162;DHT22;36061;48.116;11.612;2023-09-07T03:33:33;15.20;99.90
50162;DHT22;36061;48.116;11.612;2023-09-07T03:36:00;15.20;99.90
50162;DHT22;36061;48.116;11.612;2023-09-07T03:38:29;15.10;99.90
50162;DHT22;36061;48.116;11.612;2023-09-07T03:40:58;15.10;99.90
50162;DHT22;36061;48.116;11.612;2023-09-07T03:43:25;15.10;99.90
50162;DHT22;36061;48.116;11.612;2023-09-07T03:45:52;15.10;99.90
50162;DHT22;36061;48.116;11.612;2023-09-07T03:48:20;15.10;99.90
50162;DHT22;36061;48.116;11.612;2023-09-07T03:50:47;15.10;99.90
50162;DHT22;36061;48.116;11.612;2023-09-07T03:53:14;15.10;99.90
50162;DHT22;36061;48.116;11.612;2023-09-07T03:55:43;15.10;99.90
50162;DHT22;36061;48.116;11.612;2023-09-07T03:58:14;15.00;99.90
50162;DHT22;36061;48.116;11.612;2023-09-07T04:00:44;15.00;99.90
50162;DHT22;36061;48.116;11.612;2023-09-07T04:03:11;14.90;99.90
50162;DHT22;36061;48.116;11.612;2023-09-07T04:05:39;14.90;99.90
50162;DHT22;36061;48.116;11.612;2023-09-07T04:08:06;14.90;99.90
50162;DHT22;36061;48.116;11.612;2023-09-07T04:10:37;14.90;99.90
50162;DHT22;36061;48.116;11.612;2023-09-07T04:13:04;14.90;99.90
50162;DHT22;36061;48.116;11.612;2023-09-07T04:15:33;14.90;99.90
50162;DHT22;36061;48.116;11.612;2023-09-07T04:18:02;14.90;99.90
50162;DHT22;36061;48.116;11.612;2023-09-07T04:20:29;14.90;99.90
50162;DHT22;36061;48.116;11.612;2023-09-07T04:22:56;14.80;99.90
50162;DHT22;36061;48.116;11.612;2023-09-07T04:25:24;14.70;99.90
50162;DHT22;36061;48.116;11.612;2023-09-07T04:27:51;14.70;99.90
50162;DHT22;36061;48.116;11.612;2023-09-07T04:30:19;14.70;99.90
50162;DHT22;36061;48.116;11.612;2023-09-07T04:32:47;14.70;99.90
50162;DHT22;36061;48.116;11.612;2023-09-07T04:35:15;14.60;99.90
50162;DHT22;36061;48.116;11.612;2023-09-07T04:37:43;14.60;99.90
50162;DHT22;36061;48.116;11.612;2023-09-07T04:40:11;14.60;99.90
50162;DHT22;36061;48.116;11.612;2023-09-07T04:42:38;14.60;99.90
50162;DHT22;36061;48.116;11.612;2023-09-07T04:45:06;14.50;99.90
50162;DHT22;36061;48.116;11.612;2023-09-07T04:47:34;14.50;99.90
50162;DHT22;36061;48.116;11.612;2023-09-07T04:50:05;14.50;99.90
50162;DHT22;36061;48.116;11.612;2023-09-07T04:52:34;14.60;99.90
50162;DHT22;36061;48.116;11.612;2023-09-07T04:55:01;14.50;99.90
50162;DHT22;36061;48.116;11.612;2023-09-07T04:57:30;14.50;99.90
50162;DHT22;36061;48.116;11.612;2023-09-07T04:59:57;14.60;99.90
50162;DHT22;36061;48.116;11.612;2023-09-07T05:02:25;14.60;99.90
50162;DHT22;36061;48.116;11.612;2023-09-07T05:04:52;14.60;99.90
50162;DHT22;36061;48.116;11.612;2023-09-07T05:07:21;14.60;99.90
50162;DHT22;36061;48.116;11.612;2023-09-07T05:09:48;14.60;99.90
50162;DHT22;36061;48.116;11.612;2023-09-07T05:12:15;14.60;99.90
50162;DHT22;36061;48.116;11.612;2023-09-07T05:14:44;14.60;99.90
50162;DHT22;36061;48.116;11.612;2023-09-07T05:17:11;14.60;99.90
50162;DHT22;36061;48.116;11.612;2023-09-07T05:19:39;14.60;99.90
50162;DHT22;36061;48.116;11.612;2023-09-07T05:22:06;14.60;99.90
50162;DHT22;36061;48.116;11.612;2023-09-07T05:24:37;14.60;99.90
50162;DHT22;36061;48.116;11.612;2023-09-07T05:27:04;14.60;99.90
50162;DHT22;36061;48.116;11.612;2023-09-07T05:29:33;14.60;99.90
50162;DHT22;36061;48.116;11.612;2023-09-07T05:32:00;14.60;99.90
50162;DHT22;36061;48.116;11.612;2023-09-07T05:34:27;14.70;99.90
50162;DHT22;36061;48.116;11.612;2023-09-07T05:36:56;14.70;99.90
50162;DHT22;36061;48.116;11.612;2023-09-07T05:39:23;14.70;99.90
50162;DHT22;36061;48.116;11.612;2023-09-07T05:41:52;14.80;99.90
50162;DHT22;36061;48.116;11.612;2023-09-07T05:44:19;15.00;99.90
50162;DHT22;36061;48.116;11.612;2023-09-07T05:46:46;15.30;99.90
50162;DHT22;36061;48.116;11.612;2023-09-07T05:49:14;15.60;99.90
50162;DHT22;36061;48.116;11.612;2023-09-07T05:51:41;15.80;99.90
50162;DHT22;36061;48.116;11.612;2023-09-07T05:54:08;16.00;99.90
50162;DHT22;36061;48.116;11.612;2023-09-07T05:56:35;16.10;99.90
50162;DHT22;36061;48.116;11.612;2023-09-07T05:59:04;16.30;99.90
50162;DHT22;36061;48.116;11.612;2023-09-07T06:01:31;16.50;99.90
50162;DHT22;36061;48.116;11.612;2023-09-07T06:03:59;16.70;99.90
50162;DHT22;36061;48.116;11.612;2023-09-07T06:06:26;17.20;99.90
50162;DHT22;36061;48.116;11.612;2023-09-07T06:08:54;18.00;99.90
50162;DHT22;36061;48.116;11.612;2023-09-07T06:11:21;18.90;99.90
50162;DHT22;36061;48.116;11.612;2023-09-07T06:13:48;19.60;99.90
50162;DHT22;36061;48.116;11.612;2023-09-07T06:16:17;20.00;99.90
50162;DHT22;36061;48.116;11.612;2023-09-07T06:18:44;20.20;99.90
50162;DHT22;36061;48.116;11.612;2023-09-07T06:21:12;20.20;99.90
50162;DHT22;36061;48.116;11.612;2023-09-07T06:23:39;19.90;99.90
50162;DHT22;36061;48.116;11.612;2023-09-07T06:26:06;19.80;99.90
50162;DHT22;36061;48.116;11.612;2023-09-07T06:28:33;19.90;99.90
50162;DHT22;36061;48.116;11.612;2023-09-07T06:31:01;20.20;99.90
50162;DHT22;36061;48.116;11.612;2023-09-07T06:33:30;20.50;99.90
50162;DHT22;36061;48.116;11.612;2023-09-07T06:35:59;20.70;99.90
50162;DHT22;36061;48.116;11.612;2023-09-07T06:38:27;20.80;99.90
50162;DHT22;36061;48.116;11.612;2023-09-07T06:40:55;20.90;99.90
50162;DHT22;36061;48.116;11.612;2023-09-07T06:43:22;21.00;99.90
50162;DHT22;36061;48.116;11.612;2023-09-07T06:45:50;20.90;99.90
50162;DHT22;36061;48.116;11.612;2023-09-07T06:48:17;20.80;99.90
50162;DHT22;36061;48.116;11.612;2023-09-07T06:50:46;20.60;99.90
50162;DHT22;36061;48.116;11.612;2023-09-07T06:53:14;20.40;99.90
50162;DHT22;36061;48.116;11.612;2023-09-07T06:55:41;20.20;99.90
50162;DHT22;36061;48.116;11.612;2023-09-07T06:58:09;19.90;99.90
50162;DHT22;36061;48.116;11.612;2023-09-07T07:00:36;19.70;99.90
50162;DHT22;36061;48.116;11.612;2023-09-07T07:03:04;19.50;99.90
50162;DHT22;36061;48.116;11.612;2023-09-07T07:05:31;19.40;99.90
50162;DHT22;36061;48.116;11.612;2023-09-07T07:08:01;19.30;99.90
50162;DHT22;36061;48.116;11.612;2023-09-07T07:10:28;19.20;99.90
50162;DHT22;36061;48.116;11.612;2023-09-07T07:12:56;19.10;99.90
50162;DHT22;36061;48.116;11.612;2023-09-07T07:15:23;19.00;99.90
50162;DHT22;36061;48.116;11.612;2023-09-07T07:17:51;18.90;99.90
50162;DHT22;36061;48.116;11.612;2023-09-07T07:20:18;18.70;99.90
50162;DHT22;36061;48.116;11.612;2023-09-07T07:22:45;18.60;99.90
50162;DHT22;36061;48.116;11.612;2023-09-07T07:25:16;18.60;99.90
50162;DHT22;36061;48.116;11.612;2023-09-07T07:27:43;18.60;99.90
50162;DHT22;36061;48.116;11.612;2023-09-07T07:30:11;18.70;99.90
50162;DHT22;36061;48.116;11.612;2023-09-07T07:32:40;18.70;99.90
50162;DHT22;36061;48.116;11.612;2023-09-07T07:35:07;18.70;99.90
50162;DHT22;36061;48.116;11.612;2023-09-07T07:37:35;18.70;99.90
50162;DHT22;36061;48.116;11.612;2023-09-07T07:40:05;18.70;99.90
50162;DHT22;36061;48.116;11.612;2023-09-07T07:42:33;18.70;99.90
50162;DHT22;36061;48.116;11.612;2023-09-07T07:45:01;18.80;99.90
50162;DHT22;36061;48.116;11.612;2023-09-07T07:47:28;18.80;99.90
50162;DHT22;36061;48.116;11.612;2023-09-07T07:49:56;18.90;99.90
50162;DHT22;36061;48.116;11.612;2023-09-07T07:52:23;18.90;99.90
50162;DHT22;36061;48.116;11.612;2023-09-07T07:54:51;18.90;99.90
50162;DHT22;36061;48.116;11.612;2023-09-07T07:57:18;19.00;99.90
50162;DHT22;36061;48.116;11.612;2023-09-07T07:59:47;19.00;99.90
50162;DHT22;36061;48.116;11.612;2023-09-07T08:02:14;19.10;99.90
50162;DHT22;36061;48.116;11.612;2023-09-07T08:04:41;19.10;99.90
50162;DHT22;36061;48.116;11.612;2023-09-07T08:07:09;19.30;99.90
50162;DHT22;36061;48.116;11.612;2023-09-07T08:09:38;19.40;99.90
50162;DHT22;36061;48.116;11.612;2023-09-07T08:12:05;19.40;99.90
50162;DHT22;36061;48.116;11.612;2023-09-07T08:14:35;19.40;99.90
50162;DHT22;36061;48.116;11.612;2023-09-07T08:17:05;19.50;99.90
50162;DHT22;36061;48.116;11.612;2023-09-07T08:19:33;19.60;99.90
50162;DHT22;36061;48.116;11.612;2023-09-07T08:22:01;19.60;99.90
50162;DHT22;36061;48.116;11.612;2023-09-07T08:24:29;19.70;99.90
50162;DHT22;36061;48.116;11.612;2023-09-07T08:26:57;19.70;99.90
50162;DHT22;36061;48.116;11.612;2023-09-07T08:29:26;19.70;99.90
50162;DHT22;36061;48.116;11.612;2023-09-07T08:31:57;19.80;99.90
50162;DHT22;36061;48.116;11.612;2023-09-07T08:34:26;19.80;99.90
50162;DHT22;36061;48.116;11.612;2023-09-07T08:36:54;19.90;99.90
50162;DHT22;36061;48.116;11.612;2023-09-07T08:39:24;20.00;99.90
50162;DHT22;36061;48.116;11.612;2023-09-07T08:41:52;20.10;99.90
50162;DHT22;36061;48.116;11.612;2023-09-07T08:44:20;20.20;99.90
50162;DHT22;36061;48.116;11.612;2023-09-07T08:46:49;20.30;99.90
50162;DHT22;36061;48.116;11.612;2023-09-07T08:49:17;20.40;99.90
50162;DHT22;36061;48.116;11.612;2023-09-07T08:51:46;20.60;99.90
50162;DHT22;36061;48.116;11.612;2023-09-07T08:54:14;20.70;99.90
50162;DHT22;36061;48.116;11.612;2023-09-07T08:56:41;20.80;99.90
50162;DHT22;36061;48.116;11.612;2023-09-07T08:59:09;20.90;99.90
50162;DHT22;36061;48.116;11.612;2023-09-07T09:01:36;20.90;99.90
50162;DHT22;36061;48.116;11.612;2023-09-07T09:04:03;21.10;99.90
50162;DHT22;36061;48.116;11.612;2023-09-07T09:06:31;21.10;99.90
50162;DHT22;36061;48.116;11.612;2023-09-07T09:08:59;21.10;99.90
50162;DHT22;36061;48.116;11.612;2023-09-07T09:11:27;21.10;99.90
50162;DHT22;36061;48.116;11.612;2023-09-07T09:13:54;21.10;99.90
50162;DHT22;36061;48.116;11.612;2023-09-07T09:16:21;21.10;99.90
50162;DHT22;36061;48.116;11.612;2023-09-07T09:18:49;21.10;99.90
50162;DHT22;36061;48.116;11.612;2023-09-07T09:21:18;21.10;99.90
50162;DHT22;36061;48.116;11.612;2023-09-07T09:23:48;21.10;99.90
50162;DHT22;36061;48.116;11.612;2023-09-07T09:26:17;21.20;99.90
50162;DHT22;36061;48.116;11.612;2023-09-07T09:28:45;21.20;99.90
50162;DHT22;36061;48.116;11.612;2023-09-07T09:31:13;21.20;99.90
50162;DHT22;36061;48.116;11.612;2023-09-07T09:33:41;21.20;99.90
50162;DHT22;36061;48.116;11.612;2023-09-07T09:36:08;21.20;99.90
50162;DHT22;36061;48.116;11.612;2023-09-07T09:38:36;21.20;99.90
50162;DHT22;36061;48.116;11.612;2023-09-07T09:41:04;21.30;99.90
50162;DHT22;36061;48.116;11.612;2023-09-07T09:43:33;21.40;99.90
50162;DHT22;36061;48.116;11.612;2023-09-07T09:46:00;21.40;99.90
50162;DHT22;36061;48.116;11.612;2023-09-07T09:48:29;21.40;99.90
50162;DHT22;36061;48.116;11.612;2023-09-07T09:50:59;21.50;99.90
50162;DHT22;36061;48.116;11.612;2023-09-07T09:53:27;21.50;99.90
50162;DHT22;36061;48.116;11.612;2023-09-07T09:55:54;21.60;99.90
50162;DHT22;36061;48.116;11.612;2023-09-07T09:58:21;21.60;99.90
50162;DHT22;36061;48.116;11.612;2023-09-07T10:00:53;21.70;99.90
50162;DHT22;36061;48.116;11.612;2023-09-07T10:03:26;21.70;99.90
50162;DHT22;36061;48.116;11.612;2023-09-07T10:05:56;21.70;99.90
50162;DHT22;36061;48.116;11.612;2023-09-07T10:08:23;21.80;99.90
50162;DHT22;36061;48.116;11.612;2023-09-07T10:10:53;21.90;99.90
50162;DHT22;36061;48.116;11.612;2023-09-07T10:13:29;22.00;99.90
50162;DHT22;36061;48.116;11.612;2023-09-07T10:16:03;22.00;99.90
50162;DHT22;36061;48.116;11.612;2023-09-07T10:18:34;22.10;99.90
50162;DHT22;36061;48.116;11.612;2023-09-07T10:21:02;22.20;99.90
50162;DHT22;36061;48.116;11.612;2023-09-07T10:23:36;22.20;99.90
50162;DHT22;36061;48.116;11.612;2023-09-07T10:26:04;22.30;99.90
50162;DHT22;36061;48.116;11.612;2023-09-07T10:28:32;22.30;99.90
50162;DHT22;36061;48.116;11.612;2023-09-07T10:31:05;22.30;99.90
50162;DHT22;36061;48.116;11.612;2023-09-07T10:33:34;22.40;99.90
50162;DHT22;36061;48.116;11.612;2023-09-07T10:36:02;22.40;99.90
50162;DHT22;36061;48.116;11.612;2023-09-07T10:38:31;22.40;99.90
50162;DHT22;36061;48.116;11.612;2023-09-07T10:41:00;22.50;99.90
50162;DHT22;36061;48.116;11.612;2023-09-07T10:43:27;22.50;99.90
50162;DHT22;36061;48.116;11.612;2023-09-07T10:45:55;22.60;99.90
50162;DHT22;36061;48.116;11.612;2023-09-07T10:48:24;22.70;99.90
50162;DHT22;36061;48.116;11.612;2023-09-07T10:50:52;22.70;99.90
50162;DHT22;36061;48.116;11.612;2023-09-07T10:53:26;22.70;99.90
50162;DHT22;36061;48.116;11.612;2023-09-07T10:55:56;22.70;99.90
50162;DHT22;36061;48.116;11.612;2023-09-07T10:58:25;22.70;99.90
50162;DHT22;36061;48.116;11.612;2023-09-07T11:00:53;22.70;99.90
50162;DHT22;36061;48.116;11.612;2023-09-07T11:03:20;22.80;99.90
50162;DHT22;36061;48.116;11.612;2023-09-07T11:05:51;22.80;99.90
50162;DHT22;36061;48.116;11.612;2023-09-07T11:08:20;22.80;99.90
50162;DHT22;36061;48.116;11.612;2023-09-07T11:10:47;22.90;99.90
50162;DHT22;36061;48.116;11.612;2023-09-07T11:13:16;22.90;99.90
50162;DHT22;36061;48.116;11.612;2023-09-07T11:15:43;23.00;99.90
50162;DHT22;36061;48.116;11.612;2023-09-07T11:18:11;23.00;99.90
50162;DHT22;36061;48.116;11.612;2023-09-07T11:20:39;23.00;99.90
50162;DHT22;36061;48.116;11.612;2023-09-07T11:23:07;23.00;99.90
50162;DHT22;36061;48.116;11.612;2023-09-07T11:25:35;23.10;99.90
50162;DHT22;36061;48.116;11.612;2023-09-07T11:28:03;23.10;99.90
50162;DHT22;36061;48.116;11.612;2023-09-07T11:30:30;23.20;99.90
50162;DHT22;36061;48.116;11.612;2023-09-07T11:33:01;23.20;99.90
50162;DHT22;36061;48.116;11.612;2023-09-07T11:35:29;23.20;99.90
50162;DHT22;36061;48.116;11.612;2023-09-07T11:37:56;23.30;99.90
50162;DHT22;36061;48.116;11.612;2023-09-07T11:40:25;23.30;99.90
50162;DHT22;36061;48.116;11.612;2023-09-07T11:42:52;23.30;99.90
50162;DHT22;36061;48.116;11.612;2023-09-07T11:45:19;23.30;99.90
50162;DHT22;36061;48.116;11.612;2023-09-07T11:47:47;23.40;99.90
50162;DHT22;36061;48.116;11.612;2023-09-07T11:50:16;23.40;99.90
50162;DHT22;36061;48.116;11.612;2023-09-07T11:52:44;23.40;99.90
50162;DHT22;36061;48.116;11.612;2023-09-07T11:55:13;23.40;99.90
50162;DHT22;36061;48.116;11.612;2023-09-07T11:57:42;23.50;99.90
50162;DHT22;36061;48.116;11.612;2023-09-07T12:00:10;23.60;99.90
50162;DHT22;36061;48.116;11.612;2023-09-07T12:02:38;23.50;99.90
50162;DHT22;36061;48.116;11.612;2023-09-07T12:05:06;23.60;99.90
50162;DHT22;36061;48.116;11.612;2023-09-07T12:07:35;23.70;99.90
50162;DHT22;36061;48.116;11.612;2023-09-07T12:10:03;23.60;99.90
50162;DHT22;36061;48.116;11.612;2023-09-07T12:12:30;23.60;99.90
50162;DHT22;36061;48.116;11.612;2023-09-07T12:14:59;23.70;99.90
50162;DHT22;36061;48.116;11.612;2023-09-07T12:17:26;23.70;99.90
50162;DHT22;36061;48.116;11.612;2023-09-07T12:19:53;23.80;99.90
50162;DHT22;36061;48.116;11.612;2023-09-07T12:22:21;23.80;99.90
50162;DHT22;36061;48.116;11.612;2023-09-07T12:24:48;23.80;99.90
50162;DHT22;36061;48.116;11.612;2023-09-07T12:27:16;23.90;99.90
50162;DHT22;36061;48.116;11.612;2023-09-07T12:29:44;23.90;99.90
50162;DHT22;36061;48.116;11.612;2023-09-07T12:32:13;23.90;99.90
50162;DHT22;36061;48.116;11.612;2023-09-07T12:34:40;23.90;99.90
50162;DHT22;36061;48.116;11.612;2023-09-07T12:37:07;24.00;99.90
50162;DHT22;36061;48.116;11.612;2023-09-07T12:39:34;24.00;99.90
50162;DHT22;36061;48.116;11.612;2023-09-07T12:42:01;24.00;99.90
50162;DHT22;36061;48.116;11.612;2023-09-07T12:44:29;24.00;99.90
50162;DHT22;36061;48.116;11.612;2023-09-07T12:46:56;24.00;99.90
50162;DHT22;36061;48.116;11.612;2023-09-07T12:49:24;24.10;99.90
50162;DHT22;36061;48.116;11.612;2023-09-07T12:51:52;24.10;99.90
50162;DHT22;36061;48.116;11.612;2023-09-07T12:54:19;24.20;99.90
50162;DHT22;36061;48.116;11.612;2023-09-07T12:56:46;24.10;99.90
50162;DHT22;36061;48.116;11.612;2023-09-07T12:59:13;24.10;99.90
50162;DHT22;36061;48.116;11.612;2023-09-07T13:01:40;24.10;99.90
50162;DHT22;36061;48.116;11.612;2023-09-07T13:04:08;24.20;99.90
50162;DHT22;36061;48.116;11.612;2023-09-07T13:06:38;24.20;99.90
50162;DHT22;36061;48.116;11.612;2023-09-07T13:09:06;24.20;99.90
50162;DHT22;36061;48.116;11.612;2023-09-07T13:11:35;24.30;99.90
50162;DHT22;36061;48.116;11.612;2023-09-07T13:14:02;24.30;99.90
50162;DHT22;36061;48.116;11.612;2023-09-07T13:16:29;24.30;99.90
50162;DHT22;36061;48.116;11.612;2023-09-07T13:18:58;24.30;99.90
50162;DHT22;36061;48.116;11.612;2023-09-07T13:21:25;24.30;99.90
50162;DHT22;36061;48.116;11.612;2023-09-07T13:23:54;24.30;99.90
50162;DHT22;36061;48.116;11.612;2023-09-07T13:26:21;24.30;99.90
50162;DHT22;36061;48.116;11.612;2023-09-07T13:28:49;24.30;99.90
50162;DHT22;36061;48.116;11.612;2023-09-07T13:31:16;24.20;99.90
50162;DHT22;36061;48.116;11.612;2023-09-07T13:33:43;24.30;99.90
50162;DHT22;36061;48.116;11.612;2023-09-07T13:36:10;24.40;99.90
50162;DHT22;36061;48.116;11.612;2023-09-07T13:38:37;24.40;99.90
50162;DHT22;36061;48.116;11.612;2023-09-07T13:41:06;24.40;99.90
50162;DHT22;36061;48.116;11.612;2023-09-07T13:43:33;24.30;99.90
50162;DHT22;36061;48.116;11.612;2023-09-07T13:46:00;24.20;99.90
50162;DHT22;36061;48.116;11.612;2023-09-07T13:48:27;24.20;99.90
50162;DHT22;36061;48.116;11.612;2023-09-07T13:50:55;24.20;99.90
50162;DHT22;36061;48.116;11.612;2023-09-07T13:53:23;24.20;99.90
50162;DHT22;36061;48.116;11.612;2023-09-07T13:55:50;24.20;99.90
50162;DHT22;36061;48.116;11.612;2023-09-07T13:58:18;24.30;99.90
50162;DHT22;36061;48.116;11.612;2023-09-07T14:00:45;24.30;99.90
50162;DHT22;36061;48.116;11.612;2023-09-07T14:03:13;24.30;99.90
50162;DHT22;36061;48.116;11.612;2023-09-07T14:05:40;24.30;99.90
50162;DHT22;36061;48.116;11.612;2023-09-07T14:08:08;24.30;99.90
50162;DHT22;36061;48.116;11.612;2023-09-07T14:10:35;24.30;99.90
50162;DHT22;36061;48.116;11.612;2023-09-07T14:13:02;24.20;99.90
50162;DHT22;36061;48.116;11.612;2023-09-07T14:15:31;24.30;99.90
50162;DHT22;36061;48.116;11.612;2023-09-07T14:17:58;24.30;99.90
50162;DHT22;36061;48.116;11.612;2023-09-07T14:20:26;24.30;99.90
50162;DHT22;36061;48.116;11.612;2023-09-07T14:22:54;24.30;99.90
50162;DHT22;36061;48.116;11.612;2023-09-07T14:25:22;24.30;99.90
50162;DHT22;36061;48.116;11.612;2023-09-07T14:27:50;24.30;99.90
50162;DHT22;36061;48.116;11.612;2023-09-07T14:30:17;24.30;99.90
50162;DHT22;36061;48.116;11.612;2023-09-07T14:32:46;24.30;99.90
50162;DHT22;36061;48.116;11.612;2023-09-07T14:35:15;24.30;99.90
50162;DHT22;36061;48.116;11.612;2023-09-07T14:37:42;24.30;99.90
50162;DHT22;36061;48.116;11.612;2023-09-07T14:40:09;24.30;99.90
50162;DHT22;36061;48.116;11.612;2023-09-07T14:42:37;24.30;99.90
50162;DHT22;36061;48.116;11.612;2023-09-07T14:45:05;24.30;99.90
50162;DHT22;36061;48.116;11.612;2023-09-07T14:47:32;24.30;99.90
50162;DHT22;36061;48.116;11.612;2023-09-07T14:50:02;24.30;99.90
50162;DHT22;36061;48.116;11.612;2023-09-07T14:52:30;24.30;99.90
50162;DHT22;36061;48.116;11.612;2023-09-07T14:55:03;24.30;99.90
50162;DHT22;36061;48.116;11.612;2023-09-07T14:57:30;24.30;99.90
50162;DHT22;36061;48.116;11.612;2023-09-07T14:59:58;24.30;99.90
50162;DHT22;36061;48.116;11.612;2023-09-07T15:02:25;24.30;99.90
50162;DHT22;36061;48.116;11.612;2023-09-07T15:04:52;24.20;99.90
50162;DHT22;36061;48.116;11.612;2023-09-07T15:07:21;24.30;99.90
50162;DHT22;36061;48.116;11.612;2023-09-07T15:09:49;24.30;99.90
50162;DHT22;36061;48.116;11.612;2023-09-07T15:12:16;24.30;99.90
50162;DHT22;36061;48.116;11.612;2023-09-07T15:14:44;24.30;99.90
50162;DHT22;36061;48.116;11.612;2023-09-07T15:17:11;24.30;99.90
50162;DHT22;36061;48.116;11.612;2023-09-07T15:19:39;24.20;99.90